sensor_id;sensor_type;location;lat;lon;timestamp;pressure;altitude;pressure_sealevel;temperature;humidity
65280;BME280;51878;55.748;48.742;2023-04-05T00:02:19;99049.78;;;11.13;47.95
65280;BME280;51878;55.748;48.742;2023-04-05T00:07:22;99024.25;;;11.01;48.32
65280;BME280;51878;55.748;48.742;2023-04-05T00:12:25;99050.44;;;11.22;47.57
65280;BME280;51878;55.748;48.742;2023-04-05T00:17:27;98926.03;;;10.36;47.45
65280;BME280;51878;55.748;48.742;2023-04-05T00:22:30;98934.69;;;10.52;47.93
65280;BME280;51878;55.748;48.742;2023-04-05T00:27:32;99045.22;;;11.13;49.08
65280;BME280;51878;55.748;48.742;2023-04-05T00:32:34;99065.91;;;11.21;49.84
65280;BME280;51878;55.748;48.742;2023-04-05T00:37:37;99044.50;;;10.98;50.97
65280;BME280;51878;55.748;48.742;2023-04-05T00:42:39;99072.50;;;11.05;51.20
65280;BME280;51878;55.748;48.742;2023-04-05T00:47:42;99071.06;;;11.09;51.20
65280;BME280;51878;55.748;48.742;2023-04-05T00:52:44;99080.00;;;11.03;51.15
65280;BME280;51878;55.748;48.742;2023-04-05T00:57:47;99069.47;;;10.93;51.06
65280;BME280;51878;55.748;48.742;2023-04-05T01:03:01;99060.41;;;10.80;50.72
65280;BME280;51878;55.748;48.742;2023-04-05T01:08:17;99073.28;;;10.99;49.91
65280;BME280;51878;55.748;48.742;2023-04-05T01:13:24;99037.41;;;10.69;50.09
65280;BME280;51878;55.748;48.742;2023-04-05T01:18:26;99063.91;;;10.73;51.77
65280;BME280;51878;55.748;48.742;2023-04-05T01:23:37;99067.44;;;10.67;52.65
65280;BME280;51878;55.748;48.742;2023-04-05T01:34:39;99059.97;;;10.48;54.44
65280;BME280;51878;55.748;48.742;2023-04-05T01:39:44;99062.50;;;10.49;54.36
65280;BME280;51878;55.748;48.742;2023-04-05T01:44:52;99041.53;;;10.37;53.94
65280;BME280;51878;55.748;48.742;2023-04-05T01:49:54;99004.38;;;10.09;53.90
65280;BME280;51878;55.748;48.742;2023-04-05T01:54:56;98991.53;;;10.18;56.07
65280;BME280;51878;55.748;48.742;2023-04-05T01:59:58;99024.16;;;10.52;55.01
65280;BME280;51878;55.748;48.742;2023-04-05T02:05:00;99042.41;;;10.65;54.75
65280;BME280;51878;55.748;48.742;2023-04-05T02:10:04;99000.88;;;10.37;54.39
65280;BME280;51878;55.748;48.742;2023-04-05T02:15:07;98996.25;;;10.30;54.44
65280;BME280;51878;55.748;48.742;2023-04-05T02:20:09;98988.03;;;10.24;54.49
65280;BME280;51878;55.748;48.742;2023-04-05T02:25:13;98940.88;;;9.90;54.34
65280;BME280;51878;55.748;48.742;2023-04-05T02:30:15;99057.38;;;10.61;54.07
65280;BME280;51878;55.748;48.742;2023-04-05T02:35:18;99062.59;;;10.63;53.78
65280;BME280;51878;55.748;48.742;2023-04-05T02:40:22;99007.38;;;10.21;53.86
65280;BME280;51878;55.748;48.742;2023-04-05T02:45:24;98998.56;;;10.12;53.56
65280;BME280;51878;55.748;48.742;2023-04-05T02:50:28;98898.41;;;9.26;54.08
65280;BME280;51878;55.748;48.742;2023-04-05T02:55:30;99043.44;;;10.00;54.68
65280;BME280;51878;55.748;48.742;2023-04-05T03:00:37;98875.06;;;9.03;54.79
65280;BME280;51878;55.748;48.742;2023-04-05T03:05:39;99035.00;;;10.09;55.43
65280;BME280;51878;55.748;48.742;2023-04-05T03:10:46;99032.44;;;10.01;55.78
65280;BME280;51878;55.748;48.742;2023-04-05T03:15:52;99034.81;;;10.11;55.17
65280;BME280;51878;55.748;48.742;2023-04-05T03:20:56;98882.66;;;9.15;55.38
65280;BME280;51878;55.748;48.742;2023-04-05T03:26:02;98996.94;;;9.96;55.29
65280;BME280;51878;55.748;48.742;2023-04-05T03:31:05;99046.59;;;10.25;55.50
65280;BME280;51878;55.748;48.742;2023-04-05T03:36:09;99031.97;;;10.19;55.56
65280;BME280;51878;55.748;48.742;2023-04-05T03:41:16;99036.50;;;10.33;55.42
65280;BME280;51878;55.748;48.742;2023-04-05T03:46:18;98933.59;;;9.90;54.95
65280;BME280;51878;55.748;48.742;2023-04-05T03:51:20;99036.78;;;10.73;54.62
65280;BME280;51878;55.748;48.742;2023-04-05T03:56:22;99045.28;;;10.92;54.15
65280;BME280;51878;55.748;48.742;2023-04-05T04:01:24;98994.06;;;10.75;53.86
65280;BME280;51878;55.748;48.742;2023-04-05T04:06:26;98986.25;;;10.94;53.22
65280;BME280;51878;55.748;48.742;2023-04-05T04:11:31;99010.03;;;11.33;53.04
65280;BME280;51878;55.748;48.742;2023-04-05T04:16:33;98913.00;;;10.87;52.69
65280;BME280;51878;55.748;48.742;2023-04-05T04:21:36;99020.19;;;11.73;52.38
65280;BME280;51878;55.748;48.742;2023-04-05T04:26:40;99028.63;;;12.05;52.28
65280;BME280;51878;55.748;48.742;2023-04-05T04:31:43;98996.22;;;12.03;52.04
65280;BME280;51878;55.748;48.742;2023-04-05T04:36:50;99017.34;;;12.28;51.94
65280;BME280;51878;55.748;48.742;2023-04-05T04:42:01;98994.78;;;12.27;51.92
65280;BME280;51878;55.748;48.742;2023-04-05T04:47:03;99006.69;;;12.53;51.60
65280;BME280;51878;55.748;48.742;2023-04-05T04:52:15;99040.53;;;12.97;50.88
65280;BME280;51878;55.748;48.742;2023-04-05T04:57:17;98911.97;;;12.36;50.71
65280;BME280;51878;55.748;48.742;2023-04-05T05:02:23;98931.75;;;12.84;50.29
65280;BME280;51878;55.748;48.742;2023-04-05T05:07:26;99037.78;;;13.17;50.07
65280;BME280;51878;55.748;48.742;2023-04-05T05:12:28;98913.88;;;12.03;49.89
65280;BME280;51878;55.748;48.742;2023-04-05T05:17:32;98958.41;;;11.95;50.80
65280;BME280;51878;55.748;48.742;2023-04-05T05:22:37;99052.50;;;12.49;51.38
65280;BME280;51878;55.748;48.742;2023-04-05T05:27:40;98940.41;;;11.94;51.43
65280;BME280;51878;55.748;48.742;2023-04-05T05:32:42;99049.75;;;12.89;50.83
65280;BME280;51878;55.748;48.742;2023-04-05T05:37:44;98986.53;;;12.87;50.45
65280;BME280;51878;55.748;48.742;2023-04-05T05:42:46;98982.56;;;13.55;49.94
65280;BME280;51878;55.748;48.742;2023-04-05T05:47:48;99058.19;;;14.86;47.82
65280;BME280;51878;55.748;48.742;2023-04-05T05:52:50;99047.16;;;15.55;46.01
65280;BME280;51878;55.748;48.742;2023-04-05T05:57:53;99039.34;;;16.07;44.48
65280;BME280;51878;55.748;48.742;2023-04-05T06:02:55;99043.50;;;16.64;43.48
65280;BME280;51878;55.748;48.742;2023-04-05T06:08:00;99026.66;;;17.02;42.14
65280;BME280;51878;55.748;48.742;2023-04-05T06:13:02;99036.34;;;17.45;40.40
65280;BME280;51878;55.748;48.742;2023-04-05T06:18:04;98987.88;;;17.74;39.93
65280;BME280;51878;55.748;48.742;2023-04-05T06:23:06;98989.78;;;18.03;38.60
65280;BME280;51878;55.748;48.742;2023-04-05T06:28:08;99020.78;;;18.83;38.04
65280;BME280;51878;55.748;48.742;2023-04-05T06:33:10;98926.59;;;18.65;37.01
65280;BME280;51878;55.748;48.742;2023-04-05T06:38:13;99030.81;;;19.50;36.09
65280;BME280;51878;55.748;48.742;2023-04-05T06:43:15;99058.09;;;19.73;35.51
65280;BME280;51878;55.748;48.742;2023-04-05T06:48:17;99015.88;;;19.85;35.35
65280;BME280;51878;55.748;48.742;2023-04-05T06:53:19;99000.19;;;20.12;34.67
65280;BME280;51878;55.748;48.742;2023-04-05T06:58:39;99006.00;;;20.16;34.16
65280;BME280;51878;55.748;48.742;2023-04-05T07:05:18;99021.56;;;20.59;33.95
65280;BME280;51878;55.748;48.742;2023-04-05T07:10:21;98983.13;;;20.48;33.87
65280;BME280;51878;55.748;48.742;2023-04-05T07:15:23;99035.75;;;21.16;33.50
65280;BME280;51878;55.748;48.742;2023-04-05T07:20:25;98982.38;;;20.90;33.24
65280;BME280;51878;55.748;48.742;2023-04-05T07:25:27;98962.47;;;20.77;31.72
65280;BME280;51878;55.748;48.742;2023-04-05T07:30:29;98986.28;;;21.46;31.96
65280;BME280;51878;55.748;48.742;2023-04-05T07:35:32;99037.38;;;21.59;32.19
65280;BME280;51878;55.748;48.742;2023-04-05T07:40:34;99045.97;;;21.63;32.05
65280;BME280;51878;55.748;48.742;2023-04-05T07:45:37;98934.44;;;20.96;32.01
65280;BME280;51878;55.748;48.742;2023-04-05T07:50:39;98936.16;;;21.07;31.71
65280;BME280;51878;55.748;48.742;2023-04-05T07:55:46;99039.94;;;21.81;31.56
65280;BME280;51878;55.748;48.742;2023-04-05T08:00:48;99012.63;;;21.80;30.28
65280;BME280;51878;55.748;48.742;2023-04-05T08:05:50;98999.94;;;21.79;30.60
65280;BME280;51878;55.748;48.742;2023-04-05T08:10:54;99021.53;;;22.18;29.35
65280;BME280;51878;55.748;48.742;2023-04-05T08:15:57;98993.97;;;22.43;29.21
65280;BME280;51878;55.748;48.742;2023-04-05T08:21:00;98977.69;;;22.32;28.83
65280;BME280;51878;55.748;48.742;2023-04-05T08:26:02;98974.63;;;22.69;27.91
65280;BME280;51878;55.748;48.742;2023-04-05T08:31:04;98957.75;;;22.76;27.09
65280;BME280;51878;55.748;48.742;2023-04-05T08:36:08;99029.34;;;23.13;27.41
65280;BME280;51878;55.748;48.742;2023-04-05T08:41:18;98991.44;;;23.14;26.55
65280;BME280;51878;55.748;48.742;2023-04-05T08:46:22;99042.41;;;23.83;26.92
65280;BME280;51878;55.748;48.742;2023-04-05T08:51:25;98924.66;;;23.41;26.06
65280;BME280;51878;55.748;48.742;2023-04-05T08:56:32;98979.63;;;23.63;25.26
65280;BME280;51878;55.748;48.742;2023-04-05T09:01:38;99009.59;;;24.45;24.94
65280;BME280;51878;55.748;48.742;2023-04-05T09:06:43;99011.25;;;24.85;24.42
65280;BME280;51878;55.748;48.742;2023-04-05T09:11:46;98946.69;;;24.45;24.78
65280;BME280;51878;55.748;48.742;2023-04-05T09:16:48;99020.66;;;24.55;24.13
65280;BME280;51878;55.748;48.742;2023-04-05T09:27:13;98920.38;;;25.01;23.75
65280;BME280;51878;55.748;48.742;2023-04-05T09:32:18;99021.66;;;25.76;23.42
65280;BME280;51878;55.748;48.742;2023-04-05T09:37:22;99003.47;;;25.65;23.47
65280;BME280;51878;55.748;48.742;2023-04-05T09:42:24;98920.13;;;24.98;23.39
65280;BME280;51878;55.748;48.742;2023-04-05T09:47:31;98964.38;;;25.80;23.18
65280;BME280;51878;55.748;48.742;2023-04-05T09:52:35;98939.84;;;26.39;22.96
65280;BME280;51878;55.748;48.742;2023-04-05T09:57:39;99002.31;;;27.12;22.78
65280;BME280;51878;55.748;48.742;2023-04-05T10:02:42;99006.94;;;27.17;22.87
65280;BME280;51878;55.748;48.742;2023-04-05T10:07:45;98999.97;;;26.73;22.81
65280;BME280;51878;55.748;48.742;2023-04-05T10:12:49;98964.19;;;27.27;22.36
65280;BME280;51878;55.748;48.742;2023-04-05T10:17:55;98986.47;;;26.80;22.38
65280;BME280;51878;55.748;48.742;2023-04-05T10:23:12;98992.63;;;26.25;22.97
65280;BME280;51878;55.748;48.742;2023-04-05T10:28:36;98985.66;;;26.93;22.37
65280;BME280;51878;55.748;48.742;2023-04-05T10:33:45;98995.69;;;26.94;22.45
65280;BME280;51878;55.748;48.742;2023-04-05T10:44:31;98997.00;;;28.44;21.30
65280;BME280;51878;55.748;48.742;2023-04-05T10:49:48;98946.84;;;27.57;21.10
65280;BME280;51878;55.748;48.742;2023-04-05T10:54:54;98893.81;;;27.49;21.73
65280;BME280;51878;55.748;48.742;2023-04-05T11:00:01;98985.53;;;27.45;21.38
65280;BME280;51878;55.748;48.742;2023-04-05T11:05:04;98987.34;;;26.43;22.38
65280;BME280;51878;55.748;48.742;2023-04-05T11:10:16;98979.59;;;25.40;23.58
65280;BME280;51878;55.748;48.742;2023-04-05T11:20:51;98994.16;;;27.99;21.32
65280;BME280;51878;55.748;48.742;2023-04-05T11:26:04;98986.22;;;29.28;20.08
65280;BME280;51878;55.748;48.742;2023-04-05T11:31:17;98960.38;;;28.59;20.47
65280;BME280;51878;55.748;48.742;2023-04-05T11:36:31;98981.31;;;29.73;19.75
65280;BME280;51878;55.748;48.742;2023-04-05T11:41:34;98894.47;;;29.78;19.60
65280;BME280;51878;55.748;48.742;2023-04-05T11:46:37;98942.81;;;30.66;18.55
65280;BME280;51878;55.748;48.742;2023-04-05T11:51:40;98951.69;;;29.81;19.19
65280;BME280;51878;55.748;48.742;2023-04-05T11:56:52;98975.13;;;28.82;19.60
65280;BME280;51878;55.748;48.742;2023-04-05T12:02:02;98966.75;;;28.15;20.43
65280;BME280;51878;55.748;48.742;2023-04-05T12:07:19;98869.91;;;28.83;20.21
65280;BME280;51878;55.748;48.742;2023-04-05T12:12:21;98973.31;;;30.41;19.29
65280;BME280;51878;55.748;48.742;2023-04-05T12:22:46;98952.19;;;30.87;18.86
65280;BME280;51878;55.748;48.742;2023-04-05T12:27:51;98887.34;;;31.06;17.92
65280;BME280;51878;55.748;48.742;2023-04-05T12:32:54;98968.03;;;31.22;17.94
65280;BME280;51878;55.748;48.742;2023-04-05T12:37:58;98968.94;;;31.05;17.87
65280;BME280;51878;55.748;48.742;2023-04-05T12:43:06;98908.78;;;30.12;17.91
65280;BME280;51878;55.748;48.742;2023-04-05T12:48:13;98929.78;;;30.87;17.71
65280;BME280;51878;55.748;48.742;2023-04-05T12:53:23;98987.56;;;29.39;19.58
65280;BME280;51878;55.748;48.742;2023-04-05T12:58:36;98966.31;;;29.69;18.76
65280;BME280;51878;55.748;48.742;2023-04-05T13:03:42;98981.75;;;29.66;19.40
65280;BME280;51878;55.748;48.742;2023-04-05T13:08:44;98981.03;;;29.52;19.38
65280;BME280;51878;55.748;48.742;2023-04-05T13:13:46;98926.97;;;29.48;18.78
65280;BME280;51878;55.748;48.742;2023-04-05T13:18:48;98960.28;;;29.84;19.11
65280;BME280;51878;55.748;48.742;2023-04-05T13:23:51;98955.09;;;29.12;19.42
65280;BME280;51878;55.748;48.742;2023-04-05T13:28:53;98972.19;;;28.88;19.50
65280;BME280;51878;55.748;48.742;2023-04-05T13:33:55;98978.25;;;29.12;19.00
65280;BME280;51878;55.748;48.742;2023-04-05T13:38:57;98959.09;;;29.19;19.33
65280;BME280;51878;55.748;48.742;2023-04-05T13:43:59;98972.75;;;28.98;19.67
65280;BME280;51878;55.748;48.742;2023-04-05T13:49:03;98925.81;;;28.01;20.25
65280;BME280;51878;55.748;48.742;2023-04-05T13:54:15;98961.75;;;27.75;20.22
65280;BME280;51878;55.748;48.742;2023-04-05T14:00:03;98972.03;;;27.38;20.60
65280;BME280;51878;55.748;48.742;2023-04-05T14:05:06;98920.03;;;26.13;21.32
65280;BME280;51878;55.748;48.742;2023-04-05T14:10:09;98894.25;;;25.31;22.20
65280;BME280;51878;55.748;48.742;2023-04-05T14:15:13;98913.00;;;24.33;23.17
65280;BME280;51878;55.748;48.742;2023-04-05T14:20:15;98988.47;;;23.65;24.42
65280;BME280;51878;55.748;48.742;2023-04-05T14:25:18;98956.13;;;22.64;25.06
65280;BME280;51878;55.748;48.742;2023-04-05T14:30:20;98933.41;;;21.96;26.67
65280;BME280;51878;55.748;48.742;2023-04-05T14:35:22;98980.69;;;21.36;27.94
65280;BME280;51878;55.748;48.742;2023-04-05T14:40:24;98976.94;;;21.05;28.25
65280;BME280;51878;55.748;48.742;2023-04-05T14:45:26;98950.88;;;20.43;28.62
65280;BME280;51878;55.748;48.742;2023-04-05T14:50:29;98923.72;;;19.87;29.16
65280;BME280;51878;55.748;48.742;2023-04-05T14:55:33;98994.31;;;19.76;30.04
65280;BME280;51878;55.748;48.742;2023-04-05T15:00:35;99000.50;;;19.45;30.12
65280;BME280;51878;55.748;48.742;2023-04-05T15:05:40;98978.84;;;18.87;31.12
65280;BME280;51878;55.748;48.742;2023-04-05T15:10:42;98980.94;;;18.63;31.55
65280;BME280;51878;55.748;48.742;2023-04-05T15:15:44;98904.28;;;17.77;31.91
65280;BME280;51878;55.748;48.742;2023-04-05T15:20:46;98972.41;;;17.68;32.92
65280;BME280;51878;55.748;48.742;2023-04-05T15:25:49;98969.44;;;17.29;33.57
65280;BME280;51878;55.748;48.742;2023-04-05T15:30:51;99010.81;;;17.16;34.56
65280;BME280;51878;55.748;48.742;2023-04-05T15:35:53;99020.19;;;16.73;35.62
65280;BME280;51878;55.748;48.742;2023-04-05T15:40:58;98940.84;;;15.84;36.70
65280;BME280;51878;55.748;48.742;2023-04-05T15:46:00;98974.22;;;15.74;37.16
65280;BME280;51878;55.748;48.742;2023-04-05T15:51:02;99029.88;;;15.91;37.45
65280;BME280;51878;55.748;48.742;2023-04-05T15:56:05;99019.28;;;15.65;37.82
65280;BME280;51878;55.748;48.742;2023-04-05T16:01:07;99039.78;;;15.56;38.20
65280;BME280;51878;55.748;48.742;2023-04-05T16:06:09;98957.16;;;14.68;39.93
65280;BME280;51878;55.748;48.742;2023-04-05T16:11:12;99014.19;;;14.76;40.94
65280;BME280;51878;55.748;48.742;2023-04-05T16:16:14;99018.81;;;14.57;42.03
65280;BME280;51878;55.748;48.742;2023-04-05T16:21:29;99022.31;;;14.33;42.63
65280;BME280;51878;55.748;48.742;2023-04-05T16:26:31;99054.00;;;14.34;43.52
65280;BME280;51878;55.748;48.742;2023-04-05T16:31:33;99047.19;;;14.18;44.14
65280;BME280;51878;55.748;48.742;2023-04-05T16:36:37;99037.06;;;13.87;44.85
65280;BME280;51878;55.748;48.742;2023-04-05T16:41:39;98980.06;;;13.47;44.68
65280;BME280;51878;55.748;48.742;2023-04-05T16:46:41;99067.47;;;13.90;44.92
65280;BME280;51878;55.748;48.742;2023-04-05T16:51:46;99044.69;;;13.71;45.02
65280;BME280;51878;55.748;48.742;2023-04-05T16:56:48;98919.16;;;12.82;44.85
65280;BME280;51878;55.748;48.742;2023-04-05T17:01:50;99002.56;;;13.29;45.22
65280;BME280;51878;55.748;48.742;2023-04-05T17:06:52;99045.03;;;13.50;45.49
65280;BME280;51878;55.748;48.742;2023-04-05T17:11:55;99066.16;;;13.54;45.61
65280;BME280;51878;55.748;48.742;2023-04-05T17:16:57;99077.28;;;13.53;45.72
65280;BME280;51878;55.748;48.742;2023-04-05T17:22:00;98882.94;;;12.24;46.05
65280;BME280;51878;55.748;48.742;2023-04-05T17:27:05;98868.31;;;12.05;46.10
65280;BME280;51878;55.748;48.742;2023-04-05T17:32:07;99092.38;;;13.42;46.19
65280;BME280;51878;55.748;48.742;2023-04-05T17:37:17;99034.47;;;12.95;46.44
65280;BME280;51878;55.748;48.742;2023-04-05T17:42:19;99066.91;;;13.10;46.42
65280;BME280;51878;55.748;48.742;2023-04-05T17:47:21;99070.22;;;13.05;46.62
65280;BME280;51878;55.748;48.742;2023-04-05T17:52:24;99088.06;;;13.01;46.64
65280;BME280;51878;55.748;48.742;2023-04-05T17:57:28;99089.28;;;12.98;46.50
65280;BME280;51878;55.748;48.742;2023-04-05T18:02:30;99007.53;;;12.47;46.05
65280;BME280;51878;55.748;48.742;2023-04-05T18:07:37;99101.88;;;12.93;46.65
65280;BME280;51878;55.748;48.742;2023-04-05T18:12:42;99105.00;;;12.83;47.04
65280;BME280;51878;55.748;48.742;2023-04-05T18:17:46;99094.13;;;12.70;46.74
65280;BME280;51878;55.748;48.742;2023-04-05T18:22:54;99082.63;;;12.48;47.06
65280;BME280;51878;55.748;48.742;2023-04-05T18:27:57;99063.56;;;12.28;47.12
65280;BME280;51878;55.748;48.742;2023-04-05T18:33:00;99110.84;;;12.40;47.22
65280;BME280;51878;55.748;48.742;2023-04-05T18:38:03;99006.38;;;11.74;47.30
65280;BME280;51878;55.748;48.742;2023-04-05T18:43:05;99119.44;;;12.37;47.56
65280;BME280;51878;55.748;48.742;2023-04-05T18:48:09;98939.44;;;11.27;47.63
65280;BME280;51878;55.748;48.742;2023-04-05T18:53:12;98949.66;;;11.25;47.63
65280;BME280;51878;55.748;48.742;2023-04-05T18:58:14;99116.69;;;12.24;47.67
65280;BME280;51878;55.748;48.742;2023-04-05T19:03:16;99118.13;;;12.19;47.46
65280;BME280;51878;55.748;48.742;2023-04-05T19:08:43;99140.72;;;12.20;47.66
65280;BME280;51878;55.748;48.742;2023-04-05T19:13:47;99095.22;;;11.87;47.66
65280;BME280;51878;55.748;48.742;2023-04-05T19:18:58;99124.28;;;11.87;47.91
65280;BME280;51878;55.748;48.742;2023-04-05T19:24:00;99102.47;;;11.67;48.05
65280;BME280;51878;55.748;48.742;2023-04-05T19:29:02;99115.78;;;11.62;48.36
65280;BME280;51878;55.748;48.742;2023-04-05T19:34:51;99056.28;;;11.19;48.69
65280;BME280;51878;55.748;48.742;2023-04-05T19:40:33;99035.50;;;10.98;48.42
65280;BME280;51878;55.748;48.742;2023-04-05T19:45:38;99137.25;;;11.50;49.00
65280;BME280;51878;55.748;48.742;2023-04-05T19:50:44;99138.22;;;11.35;49.52
65280;BME280;51878;55.748;48.742;2023-04-05T19:55:48;99149.47;;;11.32;49.93
65280;BME280;51878;55.748;48.742;2023-04-05T20:00:50;99142.03;;;11.13;50.63
65280;BME280;51878;55.748;48.742;2023-04-05T20:11:15;99145.72;;;10.77;52.15
65280;BME280;51878;55.748;48.742;2023-04-05T20:16:42;99061.50;;;10.14;52.68
65280;BME280;51878;55.748;48.742;2023-04-05T20:21:43;99145.47;;;10.50;53.32
65280;BME280;51878;55.748;48.742;2023-04-05T20:26:45;99081.94;;;9.95;53.57
65280;BME280;51878;55.748;48.742;2023-04-05T20:31:47;99046.56;;;9.60;54.19
65280;BME280;51878;55.748;48.742;2023-04-05T20:36:51;99144.19;;;10.10;55.19
65280;BME280;51878;55.748;48.742;2023-04-05T20:41:58;99174.72;;;10.19;55.56
65280;BME280;51878;55.748;48.742;2023-04-05T20:47:01;99130.34;;;9.83;56.11
65280;BME280;51878;55.748;48.742;2023-04-05T20:52:03;99104.53;;;9.51;56.86
65280;BME280;51878;55.748;48.742;2023-04-05T20:57:08;99119.66;;;9.45;57.48
65280;BME280;51878;55.748;48.742;2023-04-05T21:02:10;99108.09;;;9.22;58.15
65280;BME280;51878;55.748;48.742;2023-04-05T21:07:13;99178.53;;;9.58;58.14
65280;BME280;51878;55.748;48.742;2023-04-05T21:12:15;99105.56;;;9.05;58.34
65280;BME280;51878;55.748;48.742;2023-04-05T21:17:17;99180.66;;;9.48;58.91
65280;BME280;51878;55.748;48.742;2023-04-05T21:22:19;99194.69;;;9.51;58.52
65280;BME280;51878;55.748;48.742;2023-04-05T21:27:22;99193.00;;;9.50;58.48
65280;BME280;51878;55.748;48.742;2023-04-05T21:32:24;99182.66;;;9.39;58.61
65280;BME280;51878;55.748;48.742;2023-04-05T21:37:27;99191.88;;;9.45;58.67
65280;BME280;51878;55.748;48.742;2023-04-05T21:42:30;99108.81;;;9.01;58.22
65280;BME280;51878;55.748;48.742;2023-04-05T21:47:34;99105.47;;;8.99;57.65
65280;BME280;51878;55.748;48.742;2023-04-05T21:52:36;99105.13;;;9.02;57.29
65280;BME280;51878;55.748;48.742;2023-04-05T21:57:38;99014.28;;;8.40;57.17
65280;BME280;51878;55.748;48.742;2023-04-05T22:02:40;99149.13;;;9.25;56.37
65280;BME280;51878;55.748;48.742;2023-04-05T22:07:42;99154.44;;;9.19;56.41
65280;BME280;51878;55.748;48.742;2023-04-05T22:12:45;99156.59;;;9.23;56.43
65280;BME280;51878;55.748;48.742;2023-04-05T22:17:47;99155.66;;;9.16;56.17
65280;BME280;51878;55.748;48.742;2023-04-05T22:22:49;99195.59;;;9.29;56.57
65280;BME280;51878;55.748;48.742;2023-04-05T22:27:51;99105.44;;;8.69;56.88
65280;BME280;51878;55.748;48.742;2023-04-05T22:32:53;99179.31;;;8.99;57.35
65280;BME280;51878;55.748;48.742;2023-04-05T22:37:56;99142.41;;;8.68;57.35
65280;BME280;51878;55.748;48.742;2023-04-05T22:42:58;99137.09;;;8.60;57.66
65280;BME280;51878;55.748;48.742;2023-04-05T22:48:00;99130.81;;;8.37;57.55
65280;BME280;51878;55.748;48.742;2023-04-05T22:53:02;99211.91;;;8.83;57.75
65280;BME280;51878;55.748;48.742;2023-04-05T22:58:05;99138.03;;;8.21;57.91
65280;BME280;51878;55.748;48.742;2023-04-05T23:03:08;99198.47;;;8.52;57.89
65280;BME280;51878;55.748;48.742;2023-04-05T23:08:10;99174.56;;;8.40;57.77
65280;BME280;51878;55.748;48.742;2023-04-05T23:13:12;99228.13;;;8.60;58.54
65280;BME280;51878;55.748;48.742;2023-04-05T23:18:15;99208.78;;;8.40;59.11
65280;BME280;51878;55.748;48.742;2023-04-05T23:23:22;99196.44;;;8.22;59.32
65280;BME280;51878;55.748;48.742;2023-04-05T23:28:24;99015.91;;;7.02;60.20
65280;BME280;51878;55.748;48.742;2023-04-05T23:33:27;99211.75;;;8.22;59.79
65280;BME280;51878;55.748;48.742;2023-04-05T23:38:29;99088.25;;;7.30;60.82
65280;BME280;51878;55.748;48.742;2023-04-05T23:43:31;99201.47;;;7.94;60.80
65280;BME280;51878;55.748;48.742;2023-04-05T23:48:33;99204.88;;;7.80;61.38
65280;BME280;51878;55.748;48.742;2023-04-05T23:53:36;99164.34;;;7.57;61.46
65280;BME280;51878;55.748;48.742;2023-04-05T23:58:38;99185.44;;;7.45;62.42
